sensor_id;sensor_type;location;lat;lon;timestamp;P1;durP1;ratioP1;P2;durP2;ratioP2
63444;SDS011;49573;47.682;9.170;2022-11-15T00:00:48;26.00;;;8.18;;
63444;SDS011;49573;47.682;9.170;2022-11-15T00:03:34;98.05;;;11.05;;
63444;SDS011;49573;47.682;9.170;2022-11-15T00:06:20;71.57;;;9.77;;
63444;SDS011;49573;47.682;9.170;2022-11-15T00:09:07;72.40;;;9.77;;
63444;SDS011;49573;47.682;9.170;2022-11-15T00:11:53;31.57;;;9.40;;
63444;SDS011;49573;47.682;9.170;2022-11-15T00:14:40;34.92;;;9.38;;
63444;SDS011;49573;47.682;9.170;2022-11-15T00:17:26;25.85;;;8.52;;
63444;SDS011;49573;47.682;9.170;2022-11-15T00:20:12;25.30;;;8.23;;
63444;SDS011;49573;47.682;9.170;2022-11-15T00:22:58;44.33;;;9.57;;
63444;SDS011;49573;47.682;9.170;2022-11-15T00:25:45;36.42;;;9.82;;
63444;SDS011;49573;47.682;9.170;2022-11-15T00:28:31;46.20;;;9.75;;
63444;SDS011;49573;47.682;9.170;2022-11-15T00:31:18;48.50;;;9.30;;
63444;SDS011;49573;47.682;9.170;2022-11-15T00:34:04;46.38;;;9.90;;
63444;SDS011;49573;47.682;9.170;2022-11-15T00:36:50;81.22;;;11.18;;
63444;SDS011;49573;47.682;9.170;2022-11-15T00:39:36;57.67;;;10.50;;
63444;SDS011;49573;47.682;9.170;2022-11-15T00:42:23;24.65;;;9.93;;
63444;SDS011;49573;47.682;9.170;2022-11-15T00:45:09;29.98;;;9.98;;
63444;SDS011;49573;47.682;9.170;2022-11-15T00:47:56;42.33;;;10.27;;
63444;SDS011;49573;47.682;9.170;2022-11-15T00:50:42;60.63;;;11.13;;
63444;SDS011;49573;47.682;9.170;2022-11-15T00:53:29;22.52;;;9.75;;
63444;SDS011;49573;47.682;9.170;2022-11-15T00:56:15;46.08;;;9.95;;
63444;SDS011;49573;47.682;9.170;2022-11-15T00:59:01;28.55;;;10.20;;
63444;SDS011;49573;47.682;9.170;2022-11-15T01:01:47;19.00;;;8.98;;
63444;SDS011;49573;47.682;9.170;2022-11-15T01:04:34;20.70;;;9.25;;
63444;SDS011;49573;47.682;9.170;2022-11-15T01:07:20;40.42;;;9.15;;
63444;SDS011;49573;47.682;9.170;2022-11-15T01:10:07;20.42;;;9.10;;
63444;SDS011;49573;47.682;9.170;2022-11-15T01:12:54;41.97;;;9.85;;
63444;SDS011;49573;47.682;9.170;2022-11-15T01:15:40;25.75;;;9.90;;
63444;SDS011;49573;47.682;9.170;2022-11-15T01:18:26;22.02;;;9.45;;
63444;SDS011;49573;47.682;9.170;2022-11-15T01:21:14;15.02;;;8.95;;
63444;SDS011;49573;47.682;9.170;2022-11-15T01:24:02;32.88;;;10.05;;
63444;SDS011;49573;47.682;9.170;2022-11-15T01:26:48;18.95;;;9.02;;
63444;SDS011;49573;47.682;9.170;2022-11-15T01:29:34;42.22;;;10.32;;
63444;SDS011;49573;47.682;9.170;2022-11-15T01:32:20;19.67;;;9.18;;
63444;SDS011;49573;47.682;9.170;2022-11-15T01:35:07;19.88;;;8.90;;
63444;SDS011;49573;47.682;9.170;2022-11-15T01:37:54;19.85;;;9.25;;
63444;SDS011;49573;47.682;9.170;2022-11-15T01:40:40;12.43;;;8.70;;
63444;SDS011;49573;47.682;9.170;2022-11-15T01:43:28;31.63;;;8.57;;
63444;SDS011;49573;47.682;9.170;2022-11-15T01:46:20;20.45;;;8.35;;
63444;SDS011;49573;47.682;9.170;2022-11-15T01:49:11;17.95;;;8.98;;
63444;SDS011;49573;47.682;9.170;2022-11-15T01:52:02;25.77;;;9.32;;
63444;SDS011;49573;47.682;9.170;2022-11-15T01:54:54;29.10;;;9.35;;
63444;SDS011;49573;47.682;9.170;2022-11-15T01:57:45;16.38;;;8.40;;
63444;SDS011;49573;47.682;9.170;2022-11-15T02:00:34;11.95;;;7.35;;
63444;SDS011;49573;47.682;9.170;2022-11-15T02:03:20;13.27;;;7.70;;
63444;SDS011;49573;47.682;9.170;2022-11-15T02:06:11;18.10;;;8.02;;
63444;SDS011;49573;47.682;9.170;2022-11-15T02:08:57;12.97;;;8.47;;
63444;SDS011;49573;47.682;9.170;2022-11-15T02:11:47;11.27;;;7.97;;
63444;SDS011;49573;47.682;9.170;2022-11-15T02:14:35;16.48;;;8.00;;
63444;SDS011;49573;47.682;9.170;2022-11-15T02:17:29;54.38;;;9.13;;
63444;SDS011;49573;47.682;9.170;2022-11-15T02:23:36;15.07;;;8.00;;
63444;SDS011;49573;47.682;9.170;2022-11-15T02:30:20;43.78;;;8.00;;
63444;SDS011;49573;47.682;9.170;2022-11-15T02:33:14;18.08;;;7.68;;
63444;SDS011;49573;47.682;9.170;2022-11-15T02:36:09;28.33;;;7.55;;
63444;SDS011;49573;47.682;9.170;2022-11-15T02:38:59;24.92;;;7.75;;
63444;SDS011;49573;47.682;9.170;2022-11-15T02:41:51;15.13;;;7.47;;
63444;SDS011;49573;47.682;9.170;2022-11-15T02:44:43;95.50;;;11.57;;
63444;SDS011;49573;47.682;9.170;2022-11-15T02:47:32;18.52;;;8.45;;
63444;SDS011;49573;47.682;9.170;2022-11-15T02:50:23;17.25;;;7.15;;
63444;SDS011;49573;47.682;9.170;2022-11-15T02:53:12;83.57;;;11.68;;
63444;SDS011;49573;47.682;9.170;2022-11-15T02:56:00;11.23;;;7.90;;
63444;SDS011;49573;47.682;9.170;2022-11-15T02:58:53;13.40;;;7.22;;
63444;SDS011;49573;47.682;9.170;2022-11-15T03:01:54;57.40;;;9.20;;
63444;SDS011;49573;47.682;9.170;2022-11-15T03:04:53;51.80;;;9.10;;
63444;SDS011;49573;47.682;9.170;2022-11-15T03:07:42;16.80;;;8.23;;
63444;SDS011;49573;47.682;9.170;2022-11-15T03:10:36;15.20;;;8.57;;
63444;SDS011;49573;47.682;9.170;2022-11-15T03:13:31;14.25;;;8.20;;
63444;SDS011;49573;47.682;9.170;2022-11-15T03:16:23;15.68;;;7.22;;
63444;SDS011;49573;47.682;9.170;2022-11-15T03:19:13;11.27;;;7.45;;
63444;SDS011;49573;47.682;9.170;2022-11-15T03:22:07;11.27;;;7.45;;
63444;SDS011;49573;47.682;9.170;2022-11-15T03:24:57;11.95;;;7.13;;
63444;SDS011;49573;47.682;9.170;2022-11-15T03:27:47;16.27;;;7.10;;
63444;SDS011;49573;47.682;9.170;2022-11-15T03:30:37;10.48;;;7.35;;
63444;SDS011;49573;47.682;9.170;2022-11-15T03:33:25;9.15;;;6.45;;
63444;SDS011;49573;47.682;9.170;2022-11-15T03:36:12;20.42;;;8.18;;
63444;SDS011;49573;47.682;9.170;2022-11-15T03:39:01;37.58;;;8.93;;
63444;SDS011;49573;47.682;9.170;2022-11-15T03:41:51;21.48;;;8.18;;
63444;SDS011;49573;47.682;9.170;2022-11-15T03:44:44;33.00;;;8.40;;
63444;SDS011;49573;47.682;9.170;2022-11-15T03:47:38;15.52;;;8.48;;
63444;SDS011;49573;47.682;9.170;2022-11-15T03:50:27;11.68;;;7.88;;
63444;SDS011;49573;47.682;9.170;2022-11-15T03:53:14;10.55;;;7.53;;
63444;SDS011;49573;47.682;9.170;2022-11-15T03:56:02;23.23;;;7.93;;
63444;SDS011;49573;47.682;9.170;2022-11-15T03:58:48;17.13;;;8.35;;
63444;SDS011;49573;47.682;9.170;2022-11-15T04:01:34;12.10;;;8.00;;
63444;SDS011;49573;47.682;9.170;2022-11-15T04:04:21;17.92;;;8.73;;
63444;SDS011;49573;47.682;9.170;2022-11-15T04:07:07;13.70;;;8.25;;
63444;SDS011;49573;47.682;9.170;2022-11-15T04:09:53;46.65;;;9.68;;
63444;SDS011;49573;47.682;9.170;2022-11-15T04:12:49;18.90;;;9.02;;
63444;SDS011;49573;47.682;9.170;2022-11-15T04:15:35;30.60;;;9.35;;
63444;SDS011;49573;47.682;9.170;2022-11-15T04:18:22;15.48;;;8.60;;
63444;SDS011;49573;47.682;9.170;2022-11-15T04:21:09;11.82;;;7.55;;
63444;SDS011;49573;47.682;9.170;2022-11-15T04:24:14;10.07;;;6.85;;
63444;SDS011;49573;47.682;9.170;2022-11-15T04:27:00;37.78;;;7.90;;
63444;SDS011;49573;47.682;9.170;2022-11-15T04:29:47;17.07;;;8.87;;
63444;SDS011;49573;47.682;9.170;2022-11-15T04:32:33;11.35;;;7.75;;
63444;SDS011;49573;47.682;9.170;2022-11-15T04:35:19;10.48;;;7.22;;
63444;SDS011;49573;47.682;9.170;2022-11-15T04:38:06;10.90;;;7.60;;
63444;SDS011;49573;47.682;9.170;2022-11-15T04:40:54;14.23;;;7.00;;
63444;SDS011;49573;47.682;9.170;2022-11-15T04:43:40;24.70;;;7.95;;
63444;SDS011;49573;47.682;9.170;2022-11-15T04:46:27;10.35;;;7.18;;
63444;SDS011;49573;47.682;9.170;2022-11-15T04:49:13;9.10;;;6.70;;
63444;SDS011;49573;47.682;9.170;2022-11-15T04:51:59;9.80;;;7.25;;
63444;SDS011;49573;47.682;9.170;2022-11-15T04:54:45;19.88;;;7.30;;
63444;SDS011;49573;47.682;9.170;2022-11-15T04:57:31;9.98;;;7.38;;
63444;SDS011;49573;47.682;9.170;2022-11-15T05:00:18;9.40;;;7.00;;
63444;SDS011;49573;47.682;9.170;2022-11-15T05:03:05;10.43;;;6.95;;
63444;SDS011;49573;47.682;9.170;2022-11-15T05:06:10;8.10;;;5.85;;
63444;SDS011;49573;47.682;9.170;2022-11-15T05:08:56;8.75;;;5.72;;
63444;SDS011;49573;47.682;9.170;2022-11-15T05:11:42;8.68;;;6.32;;
63444;SDS011;49573;47.682;9.170;2022-11-15T05:14:28;8.43;;;6.40;;
63444;SDS011;49573;47.682;9.170;2022-11-15T05:17:14;15.23;;;7.82;;
63444;SDS011;49573;47.682;9.170;2022-11-15T05:20:02;10.93;;;6.47;;
63444;SDS011;49573;47.682;9.170;2022-11-15T05:22:48;12.15;;;6.45;;
63444;SDS011;49573;47.682;9.170;2022-11-15T05:25:35;11.18;;;7.57;;
63444;SDS011;49573;47.682;9.170;2022-11-15T05:28:22;11.38;;;6.80;;
63444;SDS011;49573;47.682;9.170;2022-11-15T05:31:10;21.05;;;8.35;;
63444;SDS011;49573;47.682;9.170;2022-11-15T05:33:57;17.00;;;8.45;;
63444;SDS011;49573;47.682;9.170;2022-11-15T05:36:46;12.73;;;7.53;;
63444;SDS011;49573;47.682;9.170;2022-11-15T05:39:32;14.38;;;7.63;;
63444;SDS011;49573;47.682;9.170;2022-11-15T05:42:18;15.10;;;8.15;;
63444;SDS011;49573;47.682;9.170;2022-11-15T05:45:05;18.37;;;7.97;;
63444;SDS011;49573;47.682;9.170;2022-11-15T05:47:54;23.63;;;9.15;;
63444;SDS011;49573;47.682;9.170;2022-11-15T05:50:44;20.38;;;10.23;;
63444;SDS011;49573;47.682;9.170;2022-11-15T05:53:33;15.13;;;8.95;;
63444;SDS011;49573;47.682;9.170;2022-11-15T05:56:21;19.75;;;9.35;;
63444;SDS011;49573;47.682;9.170;2022-11-15T05:59:08;14.95;;;9.38;;
63444;SDS011;49573;47.682;9.170;2022-11-15T06:01:55;13.55;;;8.07;;
63444;SDS011;49573;47.682;9.170;2022-11-15T06:04:41;21.08;;;9.15;;
63444;SDS011;49573;47.682;9.170;2022-11-15T06:07:28;25.98;;;9.80;;
63444;SDS011;49573;47.682;9.170;2022-11-15T06:13:03;21.10;;;9.20;;
63444;SDS011;49573;47.682;9.170;2022-11-15T06:15:50;29.75;;;10.35;;
63444;SDS011;49573;47.682;9.170;2022-11-15T06:18:36;23.50;;;10.50;;
63444;SDS011;49573;47.682;9.170;2022-11-15T06:21:22;22.70;;;10.77;;
63444;SDS011;49573;47.682;9.170;2022-11-15T06:24:09;65.73;;;11.20;;
63444;SDS011;49573;47.682;9.170;2022-11-15T06:26:56;36.65;;;11.13;;
63444;SDS011;49573;47.682;9.170;2022-11-15T06:29:43;32.97;;;9.63;;
63444;SDS011;49573;47.682;9.170;2022-11-15T06:32:29;77.53;;;11.90;;
63444;SDS011;49573;47.682;9.170;2022-11-15T06:35:16;25.13;;;10.30;;
63444;SDS011;49573;47.682;9.170;2022-11-15T06:38:03;35.22;;;11.60;;
63444;SDS011;49573;47.682;9.170;2022-11-15T06:40:50;31.65;;;10.88;;
63444;SDS011;49573;47.682;9.170;2022-11-15T06:43:38;37.17;;;11.20;;
63444;SDS011;49573;47.682;9.170;2022-11-15T06:46:24;107.00;;;13.48;;
63444;SDS011;49573;47.682;9.170;2022-11-15T06:49:10;38.20;;;11.57;;
63444;SDS011;49573;47.682;9.170;2022-11-15T06:51:57;25.03;;;11.23;;
63444;SDS011;49573;47.682;9.170;2022-11-15T06:54:43;48.92;;;11.52;;
63444;SDS011;49573;47.682;9.170;2022-11-15T06:57:29;61.25;;;15.23;;
63444;SDS011;49573;47.682;9.170;2022-11-15T07:00:17;26.23;;;12.77;;
63444;SDS011;49573;47.682;9.170;2022-11-15T07:03:05;59.47;;;27.52;;
63444;SDS011;49573;47.682;9.170;2022-11-15T07:05:52;48.38;;;25.40;;
63444;SDS011;49573;47.682;9.170;2022-11-15T07:08:38;35.53;;;17.45;;
63444;SDS011;49573;47.682;9.170;2022-11-15T07:11:26;67.65;;;12.90;;
63444;SDS011;49573;47.682;9.170;2022-11-15T07:14:13;70.40;;;14.55;;
63444;SDS011;49573;47.682;9.170;2022-11-15T07:17:00;35.17;;;13.60;;
63444;SDS011;49573;47.682;9.170;2022-11-15T07:19:49;41.15;;;13.18;;
63444;SDS011;49573;47.682;9.170;2022-11-15T07:22:35;24.10;;;11.27;;
63444;SDS011;49573;47.682;9.170;2022-11-15T07:25:21;83.72;;;11.93;;
63444;SDS011;49573;47.682;9.170;2022-11-15T07:28:07;29.13;;;11.48;;
63444;SDS011;49573;47.682;9.170;2022-11-15T07:30:53;39.63;;;12.48;;
63444;SDS011;49573;47.682;9.170;2022-11-15T07:33:41;38.15;;;13.00;;
63444;SDS011;49573;47.682;9.170;2022-11-15T07:36:27;22.55;;;11.70;;
63444;SDS011;49573;47.682;9.170;2022-11-15T07:39:13;21.55;;;11.70;;
63444;SDS011;49573;47.682;9.170;2022-11-15T07:42:00;21.60;;;11.68;;
63444;SDS011;49573;47.682;9.170;2022-11-15T07:45:05;22.10;;;11.77;;
63444;SDS011;49573;47.682;9.170;2022-11-15T07:47:52;18.13;;;11.25;;
63444;SDS011;49573;47.682;9.170;2022-11-15T07:50:41;20.95;;;11.55;;
63444;SDS011;49573;47.682;9.170;2022-11-15T07:53:27;19.98;;;12.48;;
63444;SDS011;49573;47.682;9.170;2022-11-15T07:56:13;17.95;;;10.80;;
63444;SDS011;49573;47.682;9.170;2022-11-15T07:59:00;18.27;;;11.23;;
63444;SDS011;49573;47.682;9.170;2022-11-15T08:01:46;16.13;;;10.73;;
63444;SDS011;49573;47.682;9.170;2022-11-15T08:04:32;17.75;;;10.88;;
63444;SDS011;49573;47.682;9.170;2022-11-15T08:07:19;17.20;;;10.25;;
63444;SDS011;49573;47.682;9.170;2022-11-15T08:10:06;16.23;;;10.30;;
63444;SDS011;49573;47.682;9.170;2022-11-15T08:12:56;16.40;;;10.48;;
63444;SDS011;49573;47.682;9.170;2022-11-15T08:15:44;20.58;;;10.88;;
63444;SDS011;49573;47.682;9.170;2022-11-15T08:18:30;15.73;;;9.85;;
63444;SDS011;49573;47.682;9.170;2022-11-15T08:21:17;19.75;;;10.52;;
63444;SDS011;49573;47.682;9.170;2022-11-15T08:24:08;15.68;;;10.30;;
63444;SDS011;49573;47.682;9.170;2022-11-15T08:26:55;19.45;;;10.52;;
63444;SDS011;49573;47.682;9.170;2022-11-15T08:29:42;23.35;;;12.18;;
63444;SDS011;49573;47.682;9.170;2022-11-15T08:32:29;19.35;;;10.90;;
63444;SDS011;49573;47.682;9.170;2022-11-15T08:35:16;20.65;;;11.00;;
63444;SDS011;49573;47.682;9.170;2022-11-15T08:38:02;19.23;;;10.30;;
63444;SDS011;49573;47.682;9.170;2022-11-15T08:40:50;18.35;;;10.65;;
63444;SDS011;49573;47.682;9.170;2022-11-15T08:43:37;21.23;;;11.35;;
63444;SDS011;49573;47.682;9.170;2022-11-15T08:46:23;17.17;;;10.73;;
63444;SDS011;49573;47.682;9.170;2022-11-15T08:49:09;20.13;;;11.27;;
63444;SDS011;49573;47.682;9.170;2022-11-15T08:51:55;16.88;;;10.38;;
63444;SDS011;49573;47.682;9.170;2022-11-15T08:54:41;16.60;;;10.52;;
63444;SDS011;49573;47.682;9.170;2022-11-15T08:57:29;18.02;;;12.02;;
63444;SDS011;49573;47.682;9.170;2022-11-15T09:00:16;21.50;;;11.93;;
63444;SDS011;49573;47.682;9.170;2022-11-15T09:03:05;19.15;;;11.68;;
63444;SDS011;49573;47.682;9.170;2022-11-15T09:05:53;20.65;;;12.60;;
63444;SDS011;49573;47.682;9.170;2022-11-15T09:08:40;21.55;;;12.18;;
63444;SDS011;49573;47.682;9.170;2022-11-15T09:11:26;15.13;;;10.27;;
63444;SDS011;49573;47.682;9.170;2022-11-15T09:14:14;16.70;;;10.70;;
63444;SDS011;49573;47.682;9.170;2022-11-15T09:17:00;19.48;;;10.98;;
63444;SDS011;49573;47.682;9.170;2022-11-15T09:19:47;17.65;;;11.27;;
63444;SDS011;49573;47.682;9.170;2022-11-15T09:22:34;21.85;;;12.38;;
63444;SDS011;49573;47.682;9.170;2022-11-15T09:25:21;19.48;;;11.95;;
63444;SDS011;49573;47.682;9.170;2022-11-15T09:28:07;19.38;;;11.85;;
63444;SDS011;49573;47.682;9.170;2022-11-15T09:30:57;18.50;;;11.75;;
63444;SDS011;49573;47.682;9.170;2022-11-15T09:33:43;20.50;;;12.48;;
63444;SDS011;49573;47.682;9.170;2022-11-15T09:36:30;18.95;;;11.63;;
63444;SDS011;49573;47.682;9.170;2022-11-15T09:39:16;18.98;;;11.43;;
63444;SDS011;49573;47.682;9.170;2022-11-15T09:42:06;16.35;;;10.13;;
63444;SDS011;49573;47.682;9.170;2022-11-15T09:45:18;16.55;;;10.70;;
63444;SDS011;49573;47.682;9.170;2022-11-15T09:48:13;17.00;;;10.85;;
63444;SDS011;49573;47.682;9.170;2022-11-15T09:51:29;17.17;;;11.25;;
63444;SDS011;49573;47.682;9.170;2022-11-15T09:54:23;15.02;;;9.60;;
63444;SDS011;49573;47.682;9.170;2022-11-15T09:57:14;16.48;;;10.32;;
63444;SDS011;49573;47.682;9.170;2022-11-15T10:00:09;15.55;;;9.70;;
63444;SDS011;49573;47.682;9.170;2022-11-15T10:03:07;14.95;;;10.38;;
63444;SDS011;49573;47.682;9.170;2022-11-15T10:05:59;16.83;;;10.85;;
63444;SDS011;49573;47.682;9.170;2022-11-15T10:08:50;15.63;;;10.70;;
63444;SDS011;49573;47.682;9.170;2022-11-15T10:11:39;16.05;;;10.10;;
63444;SDS011;49573;47.682;9.170;2022-11-15T10:14:27;16.40;;;10.10;;
63444;SDS011;49573;47.682;9.170;2022-11-15T10:17:21;17.95;;;11.05;;
63444;SDS011;49573;47.682;9.170;2022-11-15T10:20:23;17.17;;;11.23;;
63444;SDS011;49573;47.682;9.170;2022-11-15T10:23:14;15.02;;;10.35;;
63444;SDS011;49573;47.682;9.170;2022-11-15T10:26:04;13.38;;;9.70;;
63444;SDS011;49573;47.682;9.170;2022-11-15T10:28:55;12.90;;;9.00;;
63444;SDS011;49573;47.682;9.170;2022-11-15T10:31:41;12.82;;;8.82;;
63444;SDS011;49573;47.682;9.170;2022-11-15T10:34:27;12.57;;;8.65;;
63444;SDS011;49573;47.682;9.170;2022-11-15T10:37:13;12.90;;;9.27;;
63444;SDS011;49573;47.682;9.170;2022-11-15T10:40:04;13.68;;;9.52;;
63444;SDS011;49573;47.682;9.170;2022-11-15T10:43:04;13.88;;;8.98;;
63444;SDS011;49573;47.682;9.170;2022-11-15T10:45:57;14.48;;;9.13;;
63444;SDS011;49573;47.682;9.170;2022-11-15T10:49:14;13.55;;;9.02;;
63444;SDS011;49573;47.682;9.170;2022-11-15T10:52:02;14.57;;;9.45;;
63444;SDS011;49573;47.682;9.170;2022-11-15T10:54:59;15.02;;;9.77;;
63444;SDS011;49573;47.682;9.170;2022-11-15T10:57:50;14.95;;;9.80;;
63444;SDS011;49573;47.682;9.170;2022-11-15T11:00:38;15.23;;;9.68;;
63444;SDS011;49573;47.682;9.170;2022-11-15T11:03:28;14.82;;;9.52;;
63444;SDS011;49573;47.682;9.170;2022-11-15T11:06:22;28.33;;;10.20;;
63444;SDS011;49573;47.682;9.170;2022-11-15T11:09:09;13.00;;;8.63;;
63444;SDS011;49573;47.682;9.170;2022-11-15T11:12:26;12.82;;;8.55;;
63444;SDS011;49573;47.682;9.170;2022-11-15T11:15:16;13.80;;;9.80;;
63444;SDS011;49573;47.682;9.170;2022-11-15T11:18:04;17.85;;;10.25;;
63444;SDS011;49573;47.682;9.170;2022-11-15T11:20:55;15.38;;;9.60;;
63444;SDS011;49573;47.682;9.170;2022-11-15T11:23:45;14.45;;;10.20;;
63444;SDS011;49573;47.682;9.170;2022-11-15T11:26:42;13.77;;;9.40;;
63444;SDS011;49573;47.682;9.170;2022-11-15T11:29:38;13.18;;;8.95;;
63444;SDS011;49573;47.682;9.170;2022-11-15T11:35:59;11.40;;;8.77;;
63444;SDS011;49573;47.682;9.170;2022-11-15T11:38:58;12.50;;;8.48;;
63444;SDS011;49573;47.682;9.170;2022-11-15T11:41:56;15.30;;;9.57;;
63444;SDS011;49573;47.682;9.170;2022-11-15T11:44:50;13.75;;;9.63;;
63444;SDS011;49573;47.682;9.170;2022-11-15T11:47:46;14.52;;;9.82;;
63444;SDS011;49573;47.682;9.170;2022-11-15T11:50:37;15.88;;;10.43;;
63444;SDS011;49573;47.682;9.170;2022-11-15T11:53:25;13.55;;;9.77;;
63444;SDS011;49573;47.682;9.170;2022-11-15T11:56:17;13.23;;;9.65;;
63444;SDS011;49573;47.682;9.170;2022-11-15T11:59:10;12.88;;;9.23;;
63444;SDS011;49573;47.682;9.170;2022-11-15T12:02:09;16.73;;;11.13;;
63444;SDS011;49573;47.682;9.170;2022-11-15T12:05:03;16.25;;;9.70;;
63444;SDS011;49573;47.682;9.170;2022-11-15T12:07:56;15.05;;;9.70;;
63444;SDS011;49573;47.682;9.170;2022-11-15T12:10:51;16.00;;;10.30;;
63444;SDS011;49573;47.682;9.170;2022-11-15T12:13:43;14.27;;;10.40;;
63444;SDS011;49573;47.682;9.170;2022-11-15T12:16:33;13.98;;;9.55;;
63444;SDS011;49573;47.682;9.170;2022-11-15T12:19:19;13.87;;;9.37;;
63444;SDS011;49573;47.682;9.170;2022-11-15T12:22:06;15.13;;;9.77;;
63444;SDS011;49573;47.682;9.170;2022-11-15T12:25:02;15.10;;;9.68;;
63444;SDS011;49573;47.682;9.170;2022-11-15T12:27:53;13.15;;;9.00;;
63444;SDS011;49573;47.682;9.170;2022-11-15T12:30:43;17.92;;;9.48;;
63444;SDS011;49573;47.682;9.170;2022-11-15T12:33:34;11.60;;;8.50;;
63444;SDS011;49573;47.682;9.170;2022-11-15T12:36:34;13.38;;;8.80;;
63444;SDS011;49573;47.682;9.170;2022-11-15T12:42:56;12.23;;;8.18;;
63444;SDS011;49573;47.682;9.170;2022-11-15T12:46:01;12.90;;;8.20;;
63444;SDS011;49573;47.682;9.170;2022-11-15T12:48:51;11.50;;;7.72;;
63444;SDS011;49573;47.682;9.170;2022-11-15T12:54:51;10.88;;;7.72;;
63444;SDS011;49573;47.682;9.170;2022-11-15T12:57:39;13.77;;;8.45;;
63444;SDS011;49573;47.682;9.170;2022-11-15T13:00:37;12.75;;;8.23;;
63444;SDS011;49573;47.682;9.170;2022-11-15T13:03:24;10.43;;;7.10;;
63444;SDS011;49573;47.682;9.170;2022-11-15T13:12:54;11.80;;;8.23;;
63444;SDS011;49573;47.682;9.170;2022-11-15T13:15:46;10.85;;;7.97;;
63444;SDS011;49573;47.682;9.170;2022-11-15T13:21:25;10.95;;;7.63;;
63444;SDS011;49573;47.682;9.170;2022-11-15T13:24:30;11.48;;;7.78;;
63444;SDS011;49573;47.682;9.170;2022-11-15T13:27:17;10.73;;;7.57;;
63444;SDS011;49573;47.682;9.170;2022-11-15T13:30:12;11.55;;;8.63;;
63444;SDS011;49573;47.682;9.170;2022-11-15T13:33:06;12.80;;;9.00;;
63444;SDS011;49573;47.682;9.170;2022-11-15T13:35:55;12.48;;;8.55;;
63444;SDS011;49573;47.682;9.170;2022-11-15T13:38:44;12.00;;;8.48;;
63444;SDS011;49573;47.682;9.170;2022-11-15T13:41:44;12.02;;;8.40;;
63444;SDS011;49573;47.682;9.170;2022-11-15T13:44:32;11.23;;;8.40;;
63444;SDS011;49573;47.682;9.170;2022-11-15T13:47:20;12.60;;;8.57;;
63444;SDS011;49573;47.682;9.170;2022-11-15T13:50:10;12.75;;;8.48;;
63444;SDS011;49573;47.682;9.170;2022-11-15T13:52:56;12.50;;;8.95;;
63444;SDS011;49573;47.682;9.170;2022-11-15T13:55:45;12.82;;;9.02;;
63444;SDS011;49573;47.682;9.170;2022-11-15T13:58:31;12.95;;;8.85;;
63444;SDS011;49573;47.682;9.170;2022-11-15T14:01:18;12.85;;;9.32;;
63444;SDS011;49573;47.682;9.170;2022-11-15T14:04:09;13.27;;;9.65;;
63444;SDS011;49573;47.682;9.170;2022-11-15T14:06:59;13.35;;;9.55;;
63444;SDS011;49573;47.682;9.170;2022-11-15T14:09:47;13.70;;;10.30;;
63444;SDS011;49573;47.682;9.170;2022-11-15T14:12:34;17.05;;;11.50;;
63444;SDS011;49573;47.682;9.170;2022-11-15T14:15:25;17.00;;;12.00;;
63444;SDS011;49573;47.682;9.170;2022-11-15T14:21:27;16.02;;;10.73;;
63444;SDS011;49573;47.682;9.170;2022-11-15T14:24:14;18.42;;;12.15;;
63444;SDS011;49573;47.682;9.170;2022-11-15T14:30:00;21.42;;;13.60;;
63444;SDS011;49573;47.682;9.170;2022-11-15T14:32:47;15.93;;;11.47;;
63444;SDS011;49573;47.682;9.170;2022-11-15T14:35:37;16.55;;;12.25;;
63444;SDS011;49573;47.682;9.170;2022-11-15T14:38:25;21.83;;;14.95;;
63444;SDS011;49573;47.682;9.170;2022-11-15T14:41:17;19.45;;;14.13;;
63444;SDS011;49573;47.682;9.170;2022-11-15T14:44:05;18.95;;;14.02;;
63444;SDS011;49573;47.682;9.170;2022-11-15T14:46:51;20.40;;;14.50;;
63444;SDS011;49573;47.682;9.170;2022-11-15T14:49:37;25.77;;;16.40;;
63444;SDS011;49573;47.682;9.170;2022-11-15T14:52:24;20.63;;;14.77;;
63444;SDS011;49573;47.682;9.170;2022-11-15T14:55:16;17.40;;;12.73;;
63444;SDS011;49573;47.682;9.170;2022-11-15T14:58:06;17.27;;;12.50;;
63444;SDS011;49573;47.682;9.170;2022-11-15T15:00:55;18.50;;;13.18;;
63444;SDS011;49573;47.682;9.170;2022-11-15T15:03:41;17.42;;;11.85;;
63444;SDS011;49573;47.682;9.170;2022-11-15T15:06:29;14.73;;;10.43;;
63444;SDS011;49573;47.682;9.170;2022-11-15T15:09:15;14.40;;;10.63;;
63444;SDS011;49573;47.682;9.170;2022-11-15T15:12:03;15.30;;;10.95;;
63444;SDS011;49573;47.682;9.170;2022-11-15T15:14:50;16.73;;;12.05;;
63444;SDS011;49573;47.682;9.170;2022-11-15T15:17:37;14.32;;;10.35;;
63444;SDS011;49573;47.682;9.170;2022-11-15T15:20:23;14.00;;;10.20;;
63444;SDS011;49573;47.682;9.170;2022-11-15T15:23:11;14.52;;;9.88;;
63444;SDS011;49573;47.682;9.170;2022-11-15T15:26:00;16.60;;;9.90;;
63444;SDS011;49573;47.682;9.170;2022-11-15T15:28:48;16.70;;;11.57;;
63444;SDS011;49573;47.682;9.170;2022-11-15T15:31:36;14.65;;;10.65;;
63444;SDS011;49573;47.682;9.170;2022-11-15T15:34:22;17.40;;;11.43;;
63444;SDS011;49573;47.682;9.170;2022-11-15T15:37:11;15.73;;;9.65;;
63444;SDS011;49573;47.682;9.170;2022-11-15T15:40:10;13.10;;;9.80;;
63444;SDS011;49573;47.682;9.170;2022-11-15T15:42:58;13.55;;;9.40;;
63444;SDS011;49573;47.682;9.170;2022-11-15T15:45:46;14.70;;;10.80;;
63444;SDS011;49573;47.682;9.170;2022-11-15T15:48:32;17.95;;;11.55;;
63444;SDS011;49573;47.682;9.170;2022-11-15T15:51:22;14.23;;;9.43;;
63444;SDS011;49573;47.682;9.170;2022-11-15T15:54:08;12.48;;;9.40;;
63444;SDS011;49573;47.682;9.170;2022-11-15T15:56:54;16.38;;;9.65;;
63444;SDS011;49573;47.682;9.170;2022-11-15T15:59:40;13.65;;;9.85;;
63444;SDS011;49573;47.682;9.170;2022-11-15T16:02:28;29.00;;;18.65;;
63444;SDS011;49573;47.682;9.170;2022-11-15T16:05:14;26.05;;;17.92;;
63444;SDS011;49573;47.682;9.170;2022-11-15T16:08:01;23.38;;;14.25;;
63444;SDS011;49573;47.682;9.170;2022-11-15T16:10:47;17.60;;;11.48;;
63444;SDS011;49573;47.682;9.170;2022-11-15T16:13:34;15.15;;;10.63;;
63444;SDS011;49573;47.682;9.170;2022-11-15T16:16:20;12.95;;;9.25;;
63444;SDS011;49573;47.682;9.170;2022-11-15T16:19:08;13.90;;;10.15;;
63444;SDS011;49573;47.682;9.170;2022-11-15T16:21:57;15.75;;;9.43;;
63444;SDS011;49573;47.682;9.170;2022-11-15T16:24:43;16.05;;;10.93;;
63444;SDS011;49573;47.682;9.170;2022-11-15T16:27:29;15.15;;;10.63;;
63444;SDS011;49573;47.682;9.170;2022-11-15T16:30:16;13.73;;;9.98;;
63444;SDS011;49573;47.682;9.170;2022-11-15T16:33:04;14.38;;;9.88;;
63444;SDS011;49573;47.682;9.170;2022-11-15T16:35:51;15.27;;;9.82;;
63444;SDS011;49573;47.682;9.170;2022-11-15T16:38:37;17.27;;;11.38;;
63444;SDS011;49573;47.682;9.170;2022-11-15T16:41:24;23.40;;;16.23;;
63444;SDS011;49573;47.682;9.170;2022-11-15T16:44:10;17.25;;;12.77;;
63444;SDS011;49573;47.682;9.170;2022-11-15T16:46:56;20.83;;;15.27;;
63444;SDS011;49573;47.682;9.170;2022-11-15T16:49:43;39.20;;;24.48;;
63444;SDS011;49573;47.682;9.170;2022-11-15T16:52:31;50.75;;;26.80;;
63444;SDS011;49573;47.682;9.170;2022-11-15T16:55:17;36.70;;;21.88;;
63444;SDS011;49573;47.682;9.170;2022-11-15T16:58:03;22.13;;;13.38;;
63444;SDS011;49573;47.682;9.170;2022-11-15T17:00:49;17.07;;;11.30;;
63444;SDS011;49573;47.682;9.170;2022-11-15T17:03:36;20.42;;;13.18;;
63444;SDS011;49573;47.682;9.170;2022-11-15T17:06:22;15.57;;;10.85;;
63444;SDS011;49573;47.682;9.170;2022-11-15T17:09:11;16.92;;;11.05;;
63444;SDS011;49573;47.682;9.170;2022-11-15T17:11:58;15.02;;;10.25;;